NCAR-RAP Real-Time Weather Data

Output produced by METARs form (17 September 2019  16:21 UTC)
found at http://weather.rap.ucar.edu/surface/
 
KP28 171556Z AUTO 19013G21KT 29/18 A3000 RMK AO1 SLP141 T02890183
KP28 171456Z AUTO 16008G15KT 24/19 A3001 RMK AO1 SLP146 T02440189 50002
KP28 171356Z AUTO 13004KT 22/19 A3001 RMK AO1 SLP148 T02220189
KP28 171256Z AUTO 13005KT 22/19 A3001 RMK AO1 SLP147 T02170189
KP28 171156Z AUTO 12004KT 21/19 A3000 RMK AO1 SLP142 T02110189 10244 20211 53004
KP28 171056Z AUTO 11004KT 21/19 A2999 RMK AO1 SLP139 T02110194
KP28 170956Z AUTO 12005KT 22/19 A2999 RMK AO1 SLP137 T02170194
KP28 170856Z AUTO 10004KT 22/20 A2999 RMK AO1 SLP137 T02170200 58002
KP28 170756Z AUTO 11004KT 22/20 A3000 RMK AO1 SLP140 T02220200
KP28 170656Z AUTO 15004KT 24/20 A3000 RMK AO1 SLP139 T02390200
KP28 170556Z AUTO 15005KT 24/20 A3000 RMK AO1 SLP139 T02440200 10317 20244 403500206 50004
KP28 170456Z AUTO 16006KT 24/20 A3000 RMK AO1 SLP140 T02440200
KP28 170356Z AUTO 16008KT 26/20 A2999 RMK AO1 SLP138 T02610200
KP28 170256Z AUTO 15007KT 27/19 A2998 RMK AO1 SLP135 T02670189 53009
KP28 170056Z AUTO 16011G22KT 30/17 A2996 RMK AO1 SLP129 T03000167
KP28 162356Z AUTO 18011G18KT 32/17 A2996 RMK AO1 SLP127 T03170167 10350 20317 55005
KP28 162256Z AUTO 18017G24KT 33/16 A2995 RMK AO1 PK WND 17028/2202 SLP125 T03280161
KP28 162156Z AUTO 17013G23KT 34/16 A2996 RMK AO1 SLP127 T03390156
KP28 162056Z AUTO 17012G25KT 34/15 A2997 RMK AO1 SLP130 T03440150 56023
KP28 161956Z AUTO 15010G22KT 34/14 A2999 RMK AO1 SLP135 T03440144